Time;durP1;ratioP1;P1;durP2;ratioP2;P2;SDS_P1;SDS_P2;PMS_P1;PMS_P2;Temp;Humidity;BMP_temperature;BMP_pressure;BME280_temperature;BME280_humidity;BME280_pressure;Samples;Min_cycle;Max_cycle;Signal;HPM_P1;HPM_P2
2022/12/13 00:01:14;;;;;;;82.67;24.83;;;1.90;99.90;;;;;;5070625;28;20226;-59
2022/12/13 00:03:39;;;;;;;80.23;23.73;;;2.00;99.90;;;;;;5070964;28;20196;-59
2022/12/13 00:06:07;;;;;;;71.30;23.80;;;2.00;99.90;;;;;;5070832;28;20365;-59
2022/12/13 00:08:33;;;;;;;75.83;23.97;;;2.00;99.90;;;;;;5063201;28;20219;-58
2022/12/13 00:11:00;;;;;;;73.27;24.53;;;2.10;99.90;;;;;;5070786;28;20160;-58
2022/12/13 00:13:26;;;;;;;77.50;24.73;;;;;;;;;;5070851;28;20169;-59
2022/12/13 00:15:56;;;;;;;67.43;23.33;;;2.10;99.90;;;;;;5070952;28;20177;-58
2022/12/13 00:18:22;;;;;;;66.80;23.80;;;1.90;99.90;;;;;;5070738;28;20176;-59
2022/12/13 00:20:48;;;;;;;70.00;23.63;;;;;;;;;;5070790;28;20534;-58
2022/12/13 00:23:13;;;;;;;73.50;24.40;;;1.60;99.90;;;;;;5071378;28;20183;-58
2022/12/13 00:25:39;;;;;;;65.00;20.97;;;2.00;99.90;;;;;;5071203;28;20616;-59
2022/12/13 00:28:04;;;;;;;66.77;23.47;;;1.90;99.90;;;;;;5071107;28;20223;-59
2022/12/13 00:30:30;;;;;;;66.07;22.07;;;2.00;99.90;;;;;;5070777;28;20261;-59
2022/12/13 00:32:56;;;;;;;66.17;22.97;;;1.50;99.90;;;;;;5070654;28;20188;-58
2022/12/13 00:35:22;;;;;;;66.37;22.97;;;;;;;;;;5070501;28;20213;-58
2022/12/13 00:37:48;;;;;;;70.20;24.00;;;;;;;;;;5070311;28;20627;-59
2022/12/13 00:40:14;;;;;;;67.83;23.77;;;1.80;99.90;;;;;;5070137;28;20183;-59
2022/12/13 00:42:39;;;;;;;69.83;25.17;;;2.20;99.90;;;;;;5070543;28;20172;-59
2022/12/13 00:45:05;;;;;;;62.20;23.43;;;2.10;99.90;;;;;;5070674;28;20562;-59
2022/12/13 00:47:31;;;;;;;69.40;24.43;;;;;;;;;;5069669;28;20224;-59
2022/12/13 00:49:57;;;;;;;60.20;22.30;;;;;;;;;;5057147;28;20208;-59
2022/12/13 00:52:23;;;;;;;76.37;25.30;;;;;;;;;;5076516;28;20216;-59
2022/12/13 00:54:49;;;;;;;67.43;24.57;;;2.30;99.90;;;;;;5073719;28;20176;-59
2022/12/13 00:57:15;;;;;;;65.23;23.90;;;;;;;;;;5074063;28;20254;-58
2022/12/13 00:59:41;;;;;;;72.20;24.07;;;;;;;;;;5074240;28;20191;-59
2022/12/13 01:02:07;;;;;;;72.60;25.23;;;;;;;;;;5071524;28;20203;-59
2022/12/13 01:04:32;;;;;;;68.67;23.93;;;2.00;99.90;;;;;;5067861;28;20291;-58
2022/12/13 01:06:58;;;;;;;65.10;24.17;;;;;;;;;;5073657;28;20300;-59
2022/12/13 01:09:29;;;;;;;63.00;22.77;;;2.10;99.90;;;;;;5073801;28;20184;-58
2022/12/13 01:12:00;;;;;;;73.53;24.50;;;1.90;99.90;;;;;;5074098;28;20177;-58
2022/12/13 01:14:26;;;;;;;75.63;24.77;;;2.50;99.90;;;;;;5073851;28;20172;-59
2022/12/13 01:16:55;;;;;;;63.13;23.83;;;;;;;;;;5072684;28;20168;-58
2022/12/13 01:19:26;;;;;;;69.20;24.87;;;2.00;99.90;;;;;;5073846;28;20180;-59
2022/12/13 01:21:55;;;;;;;68.77;23.80;;;1.30;99.90;;;;;;5073528;28;20177;-59
2022/12/13 01:24:23;;;;;;;68.30;23.93;;;;;;;;;;5073996;28;20635;-59
2022/12/13 01:26:49;;;;;;;62.93;22.63;;;;;;;;;;5073615;28;20208;-59
2022/12/13 01:29:16;;;;;;;62.37;23.00;;;2.00;99.90;;;;;;5073635;28;20177;-60
2022/12/13 01:31:42;;;;;;;56.90;23.27;;;;;;;;;;5073668;28;20169;-60
2022/12/13 01:34:12;;;;;;;63.87;23.97;;;1.80;99.90;;;;;;5073766;28;20180;-61
2022/12/13 01:36:41;;;;;;;56.50;22.27;;;2.30;99.90;;;;;;5073357;28;20221;-60
2022/12/13 01:39:09;;;;;;;63.87;23.67;;;1.90;99.90;;;;;;5073743;28;20215;-60
2022/12/13 01:41:35;;;;;;;67.07;23.93;;;0.90;99.90;;;;;;5073011;28;20223;-60
2022/12/13 01:44:05;;;;;;;54.80;22.00;;;2.00;99.90;;;;;;5073197;28;20234;-59
2022/12/13 01:46:35;;;;;;;68.20;24.33;;;2.20;99.90;;;;;;5073045;28;20245;-59
2022/12/13 01:49:09;;;;;;;71.10;24.50;;;1.30;99.90;;;;;;5072987;28;20779;-59
2022/12/13 01:51:46;;;;;;;57.83;21.50;;;2.20;99.90;;;;;;5072174;28;20250;-59
2022/12/13 01:54:17;;;;;;;64.87;23.70;;;2.20;99.90;;;;;;5069166;28;20176;-60
2022/12/13 01:56:48;;;;;;;63.43;23.67;;;2.30;99.90;;;;;;5073194;28;20566;-60
2022/12/13 01:59:16;;;;;;;56.23;23.63;;;2.30;99.90;;;;;;5064997;28;20204;-60
2022/12/13 02:01:42;;;;;;;53.73;21.40;;;2.20;99.90;;;;;;5072478;28;20263;-59
2022/12/13 02:04:08;;;;;;;55.13;21.90;;;;;;;;;;5069835;28;20216;-60
2022/12/13 02:06:37;;;;;;;58.93;22.57;;;3.00;99.90;;;;;;5070725;28;20196;-60
2022/12/13 02:09:05;;;;;;;52.83;21.57;;;2.00;99.90;;;;;;5072566;28;20181;-60
2022/12/13 02:11:31;;;;;;;49.47;20.40;;;1.90;99.90;;;;;;5072915;28;20168;-60
2022/12/13 02:13:57;;;;;;;58.87;22.97;;;1.80;99.90;;;;;;5071201;28;20181;-60
2022/12/13 02:16:51;;;;;;;48.27;21.50;;;1.90;99.90;;;;;;5072693;28;20172;-60
2022/12/13 02:19:36;;;;;;;55.73;21.83;;;1.90;99.90;;;;;;5072744;28;20181;-60
2022/12/13 02:22:24;;;;;;;51.97;21.77;;;1.70;99.90;;;;;;5072520;28;20192;-61
2022/12/13 02:25:42;;;;;;;51.17;21.43;;;1.50;99.90;;;;;;5072399;28;20172;-61
2022/12/13 02:28:16;;;;;;;50.63;21.00;;;1.60;99.90;;;;;;5058516;28;20216;-61
2022/12/13 02:30:50;;;;;;;52.97;21.40;;;1.70;99.90;;;;;;5072438;28;20215;-61
2022/12/13 02:33:35;;;;;;;51.10;21.77;;;1.80;99.90;;;;;;5072399;28;20167;-61
2022/12/13 02:36:37;;;;;;;51.20;20.73;;;1.50;99.90;;;;;;5072132;28;20274;-60
2022/12/13 02:39:16;;;;;;;48.30;19.70;;;1.30;99.90;;;;;;5071909;28;20180;-58
2022/12/13 02:41:52;;;;;;;51.13;20.67;;;1.40;99.90;;;;;;5072014;28;20164;-58
2022/12/13 02:44:20;;;;;;;51.27;21.13;;;1.20;99.90;;;;;;5071430;28;20215;-59
2022/12/13 02:46:54;;;;;;;51.47;22.30;;;1.40;99.90;;;;;;5071397;28;20222;-59
2022/12/13 02:49:23;;;;;;;49.13;21.63;;;1.30;99.90;;;;;;5070551;28;20258;-59
2022/12/13 02:51:51;;;;;;;50.63;21.20;;;1.40;99.90;;;;;;5071320;28;20612;-59
2022/12/13 02:54:17;;;;;;;50.37;22.03;;;;;;;;;;5071838;28;20218;-59
2022/12/13 02:56:56;;;;;;;48.97;21.90;;;1.40;99.90;;;;;;5063715;28;20694;-59
2022/12/13 02:59:26;;;;;;;51.40;22.67;;;1.30;99.90;;;;;;5071584;28;20184;-59
2022/12/13 03:01:57;;;;;;;49.87;21.63;;;1.30;99.90;;;;;;5059928;28;20235;-59
2022/12/13 03:04:23;;;;;;;54.27;22.43;;;;;;;;;;5069627;28;20181;-59
2022/12/13 03:06:49;;;;;;;54.57;21.67;;;;;;;;;;5086843;28;20215;-59
2022/12/13 03:09:15;;;;;;;56.97;23.33;;;;;;;;;;5070956;28;20226;-59
2022/12/13 03:14:43;;;;;;;50.17;22.00;;;2.10;99.90;;;;;;5071066;28;20187;-59
2022/12/13 03:17:12;;;;;;;46.00;20.90;;;1.50;99.90;;;;;;5071498;28;20616;-59
2022/12/13 03:19:38;;;;;;;53.57;22.40;;;;;;;;;;5071594;28;20178;-59
2022/12/13 03:22:05;;;;;;;51.03;23.30;;;1.40;99.90;;;;;;5058324;28;20252;-61
2022/12/13 03:24:31;;;;;;;50.67;21.37;;;;;;;;;;5091755;28;20191;-60
2022/12/13 03:26:57;;;;;;;48.30;22.03;;;1.50;99.90;;;;;;5084060;28;20562;-59
2022/12/13 03:29:23;;;;;;;62.77;22.87;;;;;;;;;;5071129;28;20184;-59
2022/12/13 03:31:49;;;;;;;55.90;22.37;;;;;;;;;;5071214;28;20533;-60
2022/12/13 03:34:15;;;;;;;59.63;24.57;;;0.70;99.90;;;;;;5071317;28;20176;-60
2022/12/13 03:36:41;;;;;;;54.67;22.80;;;;;;;;;;5071073;28;20579;-60
2022/12/13 03:39:06;;;;;;;57.47;23.80;;;1.40;99.90;;;;;;5071352;28;20168;-60
2022/12/13 03:41:32;;;;;;;59.23;23.43;;;;;;;;;;5070949;28;20547;-60
2022/12/13 03:44:06;;;;;;;50.73;23.17;;;1.60;99.90;;;;;;5069638;28;20256;-59
2022/12/13 03:46:32;;;;;;;57.00;22.23;;;1.30;99.90;;;;;;5070539;28;20192;-58
2022/12/13 03:48:57;;;;;;;55.43;22.77;;;1.20;99.90;;;;;;5071117;28;20180;-58
2022/12/13 03:51:23;;;;;;;51.33;23.53;;;0.90;99.90;;;;;;5063366;28;20598;-59
2022/12/13 03:53:49;;;;;;;51.73;22.80;;;;;;;;;;5069624;28;20245;-59
2022/12/13 03:56:15;;;;;;;50.90;22.00;;;1.30;99.90;;;;;;5060297;28;20203;-58
2022/12/13 03:58:41;;;;;;;55.67;22.50;;;;;;;;;;5063741;28;20180;-59
2022/12/13 04:01:12;;;;;;;55.70;22.80;;;1.30;99.90;;;;;;5070870;28;20855;-59
2022/12/13 04:03:40;;;;;;;52.83;22.60;;;1.20;99.90;;;;;;5070545;28;20184;-59
2022/12/13 04:06:06;;;;;;;54.00;23.47;;;1.40;99.90;;;;;;5070446;28;20176;-58
2022/12/13 04:08:34;;;;;;;54.70;22.13;;;1.30;99.90;;;;;;5070182;28;20690;-59
2022/12/13 04:13:31;;;;;;;52.93;22.27;;;1.20;99.90;;;;;;5070974;28;20180;-59
2022/12/13 04:13:45;;;;;;;53.53;23.30;;;;;;;;;;5070614;28;20218;-58
2022/12/13 04:16:11;;;;;;;55.10;21.57;;;;;;;;;;5070675;28;20250;-58
2022/12/13 04:18:37;;;;;;;54.87;22.93;;;1.30;99.90;;;;;;5069597;28;20176;-59
2022/12/13 04:21:03;;;;;;;50.20;21.27;;;;;;;;;;5070733;28;20175;-58
2022/12/13 04:23:29;;;;;;;48.00;20.90;;;;;;;;;;5069642;28;20173;-58
2022/12/13 04:25:55;;;;;;;48.00;21.60;;;1.20;99.90;;;;;;5072261;28;20237;-58
2022/12/13 04:28:20;;;;;;;52.83;23.33;;;1.20;99.90;;;;;;5074448;28;20662;-57
2022/12/13 04:30:46;;;;;;;45.53;21.47;;;;;;;;;;5074448;28;20579;-57
2022/12/13 04:33:12;;;;;;;50.80;22.60;;;;;;;;;;5074398;28;20171;-58
2022/12/13 04:35:38;;;;;;;54.63;22.03;;;;;;;;;;5073840;28;20315;-58
2022/12/13 04:38:04;;;;;;;55.97;22.90;;;1.20;99.90;;;;;;5074573;28;20662;-58
2022/12/13 04:40:30;;;;;;;51.83;22.33;;;;;;;;;;5074164;28;20202;-58
2022/12/13 04:42:56;;;;;;;51.37;21.93;;;1.00;99.90;;;;;;5073925;28;20646;-58
2022/12/13 04:45:22;;;;;;;47.10;22.10;;;;;;;;;;5067634;28;20179;-58
2022/12/13 04:47:48;;;;;;;49.13;20.30;;;1.10;99.90;;;;;;5072546;28;20234;-58
2022/12/13 04:50:14;;;;;;;45.87;21.53;;;1.00;99.90;;;;;;5070731;28;20640;-58
2022/12/13 04:52:40;;;;;;;52.33;22.67;;;1.10;99.90;;;;;;5063539;28;20185;-59
2022/12/13 04:55:07;;;;;;;50.53;20.97;;;1.20;99.90;;;;;;5067225;28;20180;-59
2022/12/13 04:57:33;;;;;;;46.13;21.50;;;1.20;99.90;;;;;;5073675;28;20194;-59
2022/12/13 04:59:59;;;;;;;49.43;21.83;;;1.30;99.90;;;;;;5072726;28;20183;-59
2022/12/13 05:02:25;;;;;;;53.17;21.20;;;;;;;;;;5073010;28;20188;-59
2022/12/13 05:04:51;;;;;;;44.37;21.13;;;0.80;99.90;;;;;;5073609;28;20714;-59
2022/12/13 05:07:17;;;;;;;52.83;23.03;;;;;;;;;;5089354;28;20208;-59
2022/12/13 05:09:43;;;;;;;50.97;21.83;;;;;;;;;;5073315;28;20168;-59
2022/12/13 05:12:09;;;;;;;48.53;21.37;;;1.20;99.90;;;;;;5062606;28;20168;-59
2022/12/13 05:14:35;;;;;;;47.77;21.00;;;;;;;;;;5073873;28;20187;-59
2022/12/13 05:17:01;;;;;;;51.37;22.67;;;;;;;;;;5072412;28;20261;-59
2022/12/13 05:19:27;;;;;;;55.37;22.03;;;;;;;;;;5073731;28;20173;-59
2022/12/13 05:21:53;;;;;;;44.50;20.07;;;;;;;;;;5073992;28;20177;-59
2022/12/13 05:24:19;;;;;;;49.23;22.20;;;;;;;;;;5073804;28;20172;-59
2022/12/13 05:26:45;;;;;;;48.60;20.93;;;1.00;99.90;;;;;;5073645;28;20183;-59
2022/12/13 05:29:11;;;;;;;49.23;21.27;;;0.90;99.90;;;;;;5073484;28;20184;-59
2022/12/13 05:31:37;;;;;;;50.30;21.87;;;;;;;;;;5073547;28;20168;-59
2022/12/13 05:34:03;;;;;;;52.07;21.40;;;;;;;;;;5061690;28;20546;-59
2022/12/13 05:36:28;;;;;;;49.83;22.63;;;0.70;99.90;;;;;;5093371;28;20216;-59
2022/12/13 05:38:54;;;;;;;47.90;21.33;;;;;;;;;;5092953;28;20547;-59
2022/12/13 05:41:25;;;;;;;47.97;21.13;;;0.90;99.90;;;;;;5090811;28;20724;-59
2022/12/13 05:43:51;;;;;;;48.23;20.90;;;1.10;99.90;;;;;;5065001;28;20675;-59
2022/12/13 05:46:17;;;;;;;44.70;21.27;;;;;;;;;;5066948;28;20280;-59
2022/12/13 05:48:43;;;;;;;50.50;22.17;;;;;;;;;;5066580;28;20764;-59
2022/12/13 05:51:09;;;;;;;54.50;22.70;;;1.00;99.90;;;;;;5072262;28;20172;-59
2022/12/13 05:53:35;;;;;;;52.60;21.73;;;1.30;99.90;;;;;;5073100;28;20176;-58
2022/12/13 05:56:01;;;;;;;49.20;22.00;;;1.00;99.90;;;;;;5072842;28;20191;-57
2022/12/13 05:58:27;;;;;;;51.37;22.13;;;;;;;;;;5072414;28;20184;-58
2022/12/13 06:00:53;;;;;;;51.87;21.73;;;1.00;99.90;;;;;;5072580;28;20169;-58
2022/12/13 06:03:19;;;;;;;50.83;21.53;;;;;;;;;;5071657;28;20503;-59
2022/12/13 06:05:45;;;;;;;47.03;21.97;;;1.30;99.90;;;;;;5062319;28;20184;-58
2022/12/13 06:08:11;;;;;;;51.00;21.87;;;;;;;;;;5072546;28;20621;-58
2022/12/13 06:10:37;;;;;;;51.57;21.83;;;;;;;;;;5072584;28;20267;-58
2022/12/13 06:13:04;;;;;;;48.00;21.90;;;1.00;99.90;;;;;;5072091;28;20195;-58
2022/12/13 06:15:30;;;;;;;53.13;23.20;;;1.00;99.90;;;;;;5072116;28;20180;-58
2022/12/13 06:17:58;;;;;;;57.37;23.13;;;1.10;99.90;;;;;;5072386;28;20183;-58
2022/12/13 06:20:24;;;;;;;47.40;22.57;;;;;;;;;;5072151;28;20228;-58
2022/12/13 06:22:53;;;;;;;52.70;22.17;;;1.20;99.90;;;;;;5072381;28;20172;-57
2022/12/13 06:25:19;;;;;;;50.57;21.63;;;1.00;99.90;;;;;;5072449;28;20169;-58
2022/12/13 06:27:45;;;;;;;49.93;22.07;;;;;;;;;;5071900;28;20721;-58
2022/12/13 06:30:11;;;;;;;49.60;21.63;;;0.90;99.90;;;;;;5072403;28;20188;-58
2022/12/13 06:32:37;;;;;;;57.80;23.57;;;0.90;99.90;;;;;;5070835;28;20180;-58
2022/12/13 06:35:02;;;;;;;52.17;22.63;;;0.80;99.90;;;;;;5072031;28;20176;-58
2022/12/13 06:37:28;;;;;;;50.80;22.53;;;0.80;99.90;;;;;;5064318;28;20699;-59
2022/12/13 06:39:54;;;;;;;54.53;22.53;;;0.80;99.90;;;;;;5065404;28;20183;-60
2022/12/13 06:42:20;;;;;;;49.70;21.40;;;;;;;;;;5053792;28;20700;-59
2022/12/13 06:44:46;;;;;;;55.60;23.10;;;;;;;;;;5066430;28;20216;-59
2022/12/13 06:47:11;;;;;;;55.20;23.07;;;1.00;99.90;;;;;;5070298;28;20208;-59
2022/12/13 06:49:37;;;;;;;52.57;23.43;;;1.00;99.90;;;;;;5071821;28;20180;-60
2022/12/13 06:52:03;;;;;;;52.57;22.67;;;;;;;;;;5072025;28;20187;-59
2022/12/13 06:54:29;;;;;;;54.97;23.90;;;1.00;99.90;;;;;;5071806;28;20643;-59
2022/12/13 06:56:55;;;;;;;56.20;22.63;;;;;;;;;;5071500;28;20168;-59
2022/12/13 06:59:21;;;;;;;60.60;24.87;;;0.80;99.90;;;;;;5071201;28;20913;-59
2022/12/13 07:01:46;;;;;;;55.20;23.97;;;0.90;99.90;;;;;;5071321;28;20335;-60
2022/12/13 07:04:12;;;;;;;56.53;22.97;;;;;;;;;;5071900;28;20211;-60
2022/12/13 07:06:38;;;;;;;55.60;22.63;;;;;;;;;;5071315;28;20225;-60
2022/12/13 07:09:04;;;;;;;54.23;22.23;;;;;;;;;;5071280;28;20582;-60
2022/12/13 07:11:34;;;;;;;57.23;22.07;;;1.00;99.90;;;;;;5071220;28;20175;-61
2022/12/13 07:14:00;;;;;;;53.83;22.63;;;;;;;;;;5071938;28;20266;-60
2022/12/13 07:16:27;;;;;;;53.17;24.50;;;0.90;99.90;;;;;;5071410;28;20176;-60
2022/12/13 07:18:57;;;;;;;57.57;23.73;;;0.80;99.90;;;;;;5071446;28;20172;-61
2022/12/13 07:21:23;;;;;;;51.90;22.10;;;;;;;;;;5071470;28;20179;-59
2022/12/13 07:23:50;;;;;;;50.17;22.33;;;;;;;;;;5070185;28;20179;-59
2022/12/13 07:26:16;;;;;;;57.20;22.97;;;;;;;;;;5071411;28;20169;-60
2022/12/13 07:28:42;;;;;;;61.20;24.23;;;;;;;;;;5071165;28;20212;-59
2022/12/13 07:31:08;;;;;;;63.67;24.83;;;0.50;99.90;;;;;;5071432;28;20255;-59
2022/12/13 07:33:35;;;;;;;56.33;23.57;;;;;;;;;;5063634;28;20199;-59
2022/12/13 07:36:18;;;;;;;52.63;22.80;;;0.70;99.90;;;;;;5071345;28;20227;-60
2022/12/13 07:38:49;;;;;;;60.20;24.03;;;1.00;99.90;;;;;;5057653;28;20271;-60
2022/12/13 07:41:14;;;;;;;59.57;23.93;;;;;;;;;;5051405;28;20166;-60
2022/12/13 07:43:40;;;;;;;57.90;23.90;;;;;;;;;;5051185;28;20169;-60
2022/12/13 07:46:07;;;;;;;54.40;22.27;;;;;;;;;;5063187;28;20263;-59
2022/12/13 07:48:33;;;;;;;58.63;24.73;;;;;;;;;;5071147;28;20338;-59
2022/12/13 07:51:05;;;;;;;51.63;22.27;;;0.90;99.90;;;;;;5070807;28;20184;-59
2022/12/13 07:53:32;;;;;;;60.17;25.47;;;0.70;99.90;;;;;;5070019;28;20279;-60
2022/12/13 07:56:01;;;;;;;60.03;24.43;;;0.90;99.90;;;;;;5070182;28;21506;-58
2022/12/13 07:58:29;;;;;;;55.03;22.90;;;0.70;99.90;;;;;;5070982;28;20657;-60
2022/12/13 08:00:59;;;;;;;53.20;23.77;;;0.90;99.90;;;;;;5070393;28;20634;-57
2022/12/13 08:03:24;;;;;;;60.90;23.70;;;0.90;99.90;;;;;;5070553;28;20168;-58
2022/12/13 08:06:00;;;;;;;58.13;24.77;;;0.70;99.90;;;;;;5070538;28;20188;-57
2022/12/13 08:08:27;;;;;;;60.40;24.03;;;;;;;;;;5070642;28;20764;-61
2022/12/13 08:10:52;;;;;;;64.07;25.07;;;;;;;;;;5070293;28;20180;-60
2022/12/13 08:13:18;;;;;;;64.07;24.17;;;0.70;99.90;;;;;;5070483;28;20187;-60
2022/12/13 08:15:44;;;;;;;56.67;23.77;;;0.80;99.90;;;;;;5070717;28;20176;-60
2022/12/13 08:18:09;;;;;;;56.70;23.43;;;0.70;99.90;;;;;;5070146;28;20236;-60
2022/12/13 08:20:36;;;;;;;54.63;24.20;;;;;;;;;;5069463;28;20187;-60
2022/12/13 08:23:02;;;;;;;48.13;22.57;;;;;;;;;;5070892;28;20177;-60
2022/12/13 08:25:29;;;;;;;59.93;24.80;;;0.90;99.90;;;;;;5070809;28;20180;-60
2022/12/13 08:27:55;;;;;;;57.70;24.73;;;;;;;;;;5068749;28;20219;-60
2022/12/13 08:30:20;;;;;;;56.40;24.23;;;0.90;99.90;;;;;;5065586;28;20594;-60
2022/12/13 08:32:48;;;;;;;54.57;24.07;;;0.90;99.90;;;;;;5070682;28;20227;-60
2022/12/13 08:35:14;;;;;;;60.53;24.63;;;0.90;99.90;;;;;;5070118;28;20213;-60
2022/12/13 08:37:40;;;;;;;56.40;23.97;;;0.60;99.90;;;;;;5050905;28;20189;-59
2022/12/13 08:40:06;;;;;;;51.30;22.07;;;0.60;99.90;;;;;;5050594;28;20255;-60
2022/12/13 08:42:31;;;;;;;59.07;23.53;;;0.90;99.90;;;;;;5050526;28;20189;-59
2022/12/13 08:44:57;;;;;;;54.43;23.63;;;;;;;;;;5049239;28;20170;-59
2022/12/13 08:47:26;;;;;;;59.93;23.40;;;0.90;99.90;;;;;;5050298;28;20204;-59
2022/12/13 08:49:57;;;;;;;58.17;23.53;;;0.30;99.90;;;;;;5050443;28;20252;-59
2022/12/13 08:52:23;;;;;;;58.30;23.80;;;1.50;99.90;;;;;;5069466;28;20180;-59
2022/12/13 08:54:49;;;;;;;51.97;22.70;;;;;;;;;;5070445;28;20211;-59
2022/12/13 08:57:15;;;;;;;54.23;21.50;;;;;;;;;;5070239;28;20229;-58
2022/12/13 08:59:41;;;;;;;58.60;23.13;;;;;;;;;;5070318;28;20176;-58
2022/12/13 09:02:13;;;;;;;53.73;22.37;;;1.10;99.90;;;;;;5069891;28;20646;-59
2022/12/13 09:04:39;;;;;;;51.77;22.50;;;;;;;;;;5069732;28;20230;-60
2022/12/13 09:07:05;;;;;;;50.57;22.07;;;0.90;99.90;;;;;;5085508;28;20231;-60
2022/12/13 09:09:31;;;;;;;51.17;21.07;;;;;;;;;;5069755;28;20180;-60
2022/12/13 09:11:57;;;;;;;49.83;21.33;;;;;;;;;;5070398;28;20384;-58
2022/12/13 09:14:23;;;;;;;48.93;20.47;;;1.50;99.90;;;;;;5073783;28;20218;-59
2022/12/13 09:16:48;;;;;;;49.63;21.07;;;1.30;99.90;;;;;;5073791;28;20176;-59
2022/12/13 09:19:14;;;;;;;51.13;21.97;;;1.30;99.90;;;;;;5073481;28;20169;-59
2022/12/13 09:21:40;;;;;;;48.27;20.40;;;;;;;;;;5073200;28;20176;-59
2022/12/13 09:24:06;;;;;;;46.60;21.03;;;;;;;;;;5068667;28;20210;-59
2022/12/13 09:26:32;;;;;;;45.97;19.33;;;1.50;99.90;;;;;;5071388;28;20204;-60
2022/12/13 09:28:57;;;;;;;44.33;19.57;;;1.60;99.90;;;;;;5073371;28;20265;-59
2022/12/13 09:31:23;;;;;;;43.67;20.40;;;1.80;99.90;;;;;;5069533;28;20556;-60
2022/12/13 09:33:49;;;;;;;44.90;20.07;;;1.30;99.90;;;;;;5073538;28;20186;-59
2022/12/13 09:36:17;;;;;;;44.67;19.53;;;1.60;99.90;;;;;;5072680;28;20261;-59
2022/12/13 09:38:43;;;;;;;46.03;18.23;;;;;;;;;;5072695;28;20709;-59
2022/12/13 09:41:21;;;;;;;44.53;20.47;;;1.90;99.90;;;;;;5084117;28;20595;-59
2022/12/13 09:43:53;;;;;;;39.23;18.13;;;1.60;99.90;;;;;;5072571;28;20583;-59
2022/12/13 09:46:26;;;;;;;51.50;20.03;;;2.10;99.90;;;;;;5072790;28;20193;-59
2022/12/13 09:48:53;;;;;;;45.10;20.17;;;1.60;99.90;;;;;;5073212;28;20218;-59
2022/12/13 09:51:19;;;;;;;49.30;19.33;;;;;;;;;;5072860;28;20189;-59
2022/12/13 09:53:49;;;;;;;39.43;18.03;;;1.90;99.90;;;;;;5072647;28;20204;-59
2022/12/13 09:56:18;;;;;;;41.33;18.43;;;2.00;99.90;;;;;;5071857;28;20628;-59
2022/12/13 09:58:48;;;;;;;45.10;18.70;;;1.80;99.90;;;;;;5072979;28;20172;-59
2022/12/13 10:01:14;;;;;;;40.20;18.37;;;1.90;99.90;;;;;;5072812;28;20180;-59
2022/12/13 10:03:46;;;;;;;41.70;18.43;;;1.80;99.90;;;;;;5072985;28;20189;-59
2022/12/13 10:06:23;;;;;;;39.20;18.47;;;2.10;99.90;;;;;;5072886;28;20165;-59
2022/12/13 10:08:53;;;;;;;40.40;17.70;;;2.30;99.90;;;;;;5072551;28;20208;-64
2022/12/13 10:11:20;;;;;;;41.17;17.47;;;2.10;99.90;;;;;;5073128;28;20208;-59
2022/12/13 10:14:01;;;;;;;37.13;16.80;;;2.20;99.90;;;;;;5072673;28;20279;-59
2022/12/13 10:16:33;;;;;;;42.67;16.37;;;2.30;99.90;;;;;;5072365;28;20681;-59
2022/12/13 10:19:21;;;;;;;36.60;17.43;;;2.30;99.90;;;;;;5070147;28;20161;-59
2022/12/13 10:21:47;;;;;;;37.70;17.47;;;2.50;99.90;;;;;;5069465;28;20183;-59
2022/12/13 10:24:20;;;;;;;40.40;17.47;;;2.60;99.90;;;;;;5071334;28;20215;-60
2022/12/13 10:26:46;;;;;;;38.60;17.37;;;2.60;99.90;;;;;;5070687;28;20658;-59
2022/12/13 10:29:11;;;;;;;40.90;17.83;;;2.70;99.90;;;;;;5072475;28;20204;-59
2022/12/13 10:31:49;;;;;;;39.90;16.93;;;2.80;99.90;;;;;;5072426;28;20543;-59
2022/12/13 10:34:20;;;;;;;36.40;15.93;;;2.80;99.90;;;;;;5072271;28;20214;-59
2022/12/13 10:36:46;;;;;;;37.40;17.43;;;2.80;99.90;;;;;;5072099;28;20220;-59
2022/12/13 10:39:36;;;;;;;37.63;16.57;;;2.50;99.90;;;;;;5072315;28;20210;-57
2022/12/13 10:42:05;;;;;;;40.47;17.43;;;2.80;99.90;;;;;;5072002;28;20172;-58
2022/12/13 10:44:30;;;;;;;37.33;15.93;;;2.70;99.90;;;;;;5071979;28;20183;-58
2022/12/13 10:46:59;;;;;;;34.20;15.70;;;2.70;99.90;;;;;;5071857;28;20169;-58
2022/12/13 10:49:39;;;;;;;33.40;14.33;;;3.00;99.90;;;;;;5072049;28;20263;-58
2022/12/13 10:52:19;;;;;;;37.00;16.07;;;2.90;99.90;;;;;;5071735;28;20187;-60
2022/12/13 10:54:47;;;;;;;41.13;16.23;;;3.00;99.90;;;;;;5071721;28;20187;-58
2022/12/13 10:57:13;;;;;;;32.07;15.53;;;;;;;;;;5071875;28;20241;-59
2022/12/13 10:59:39;;;;;;;34.83;15.70;;;;;;;;;;5071773;28;20165;-59
2022/12/13 11:02:24;;;;;;;32.13;14.53;;;3.20;99.90;;;;;;5071809;28;20168;-59
2022/12/13 11:04:51;;;;;;;35.97;15.10;;;3.20;99.90;;;;;;5071449;28;20180;-59
2022/12/13 11:07:24;;;;;;;27.43;14.70;;;3.40;99.90;;;;;;5071443;28;20219;-60
2022/12/13 11:09:50;;;;;;;41.43;15.97;;;3.70;99.90;;;;;;5071604;28;20176;-60
2022/12/13 11:12:23;;;;;;;36.47;17.63;;;3.40;99.90;;;;;;5071540;28;20180;-60
2022/12/13 11:15:06;;;;;;;34.23;16.33;;;3.30;99.90;;;;;;5070675;28;20770;-58
2022/12/13 11:17:44;;;;;;;29.80;15.47;;;3.50;99.90;;;;;;5068767;28;20269;-61
2022/12/13 11:20:23;;;;;;;32.27;16.10;;;3.30;99.90;;;;;;5069523;28;20184;-65
2022/12/13 11:23:00;;;;;;;33.87;16.33;;;3.40;99.90;;;;;;5069616;28;20255;-59
2022/12/13 11:25:32;;;;;;;30.27;15.37;;;3.30;99.90;;;;;;5071387;28;20167;-59
2022/12/13 11:28:19;;;;;;;33.90;16.37;;;3.30;99.90;;;;;;5071103;28;20303;-60
2022/12/13 11:31:20;;;;;;;27.87;14.67;;;3.40;99.90;;;;;;5087074;28;20181;-58
2022/12/13 11:34:04;;;;;;;30.27;13.83;;;3.30;99.90;;;;;;5048749;28;20170;-60
2022/12/13 11:36:55;;;;;;;31.73;15.27;;;3.30;99.90;;;;;;5068267;28;20216;-58
2022/12/13 11:39:41;;;;;;;38.10;16.30;;;3.40;99.90;;;;;;5070961;28;20181;-59
2022/12/13 11:42:20;;;;;;;33.03;15.93;;;3.50;99.90;;;;;;5067898;28;20177;-59
2022/12/13 11:44:57;;;;;;;41.97;16.20;;;;;;;;;;5073871;28;20203;-59
2022/12/13 11:47:28;;;;;;;30.27;15.17;;;3.00;99.90;;;;;;5091104;28;20666;-59
2022/12/13 11:49:58;;;;;;;34.40;16.40;;;3.20;99.90;;;;;;5091280;28;20168;-58
2022/12/13 11:52:27;;;;;;;36.60;16.10;;;;;;;;;;5091197;28;20171;-60
2022/12/13 11:55:00;;;;;;;34.77;16.00;;;3.20;99.90;;;;;;5091191;28;20168;-60
2022/12/13 11:57:26;;;;;;;35.70;15.83;;;;;;;;;;5091127;28;20245;-59
2022/12/13 11:59:57;;;;;;;35.77;15.07;;;2.50;99.90;;;;;;5091123;28;20197;-59
2022/12/13 12:02:33;;;;;;;31.73;15.33;;;3.00;99.90;;;;;;5091076;28;20168;-58
2022/12/13 12:05:16;;;;;;;31.53;15.40;;;3.20;99.90;;;;;;5091039;28;20220;-60
2022/12/13 12:07:52;;;;;;;31.00;14.73;;;5.80;99.90;;;;;;5090903;28;20282;-59
2022/12/13 12:10:36;;;;;;;29.97;14.03;;;3.40;99.90;;;;;;5089881;28;20693;-59
2022/12/13 12:13:24;;;;;;;32.20;15.93;;;3.70;99.90;;;;;;5089292;28;20176;-59
2022/12/13 12:16:06;;;;;;;29.23;14.03;;;3.60;99.90;;;;;;5089072;28;20222;-60
2022/12/13 12:18:32;;;;;;;31.20;15.53;;;;;;;;;;5090086;28;20194;-59
2022/12/13 12:21:27;;;;;;;31.70;14.33;;;3.70;99.90;;;;;;5089631;28;20650;-60
2022/12/13 12:24:25;;;;;;;28.80;15.20;;;3.70;99.90;;;;;;5090949;28;20168;-60
2022/12/13 12:27:23;;;;;;;30.27;14.90;;;3.80;99.90;;;;;;5090745;28;20536;-59
2022/12/13 12:30:12;;;;;;;36.20;15.13;;;3.90;99.90;;;;;;5071306;28;20187;-60
2022/12/13 12:33:04;;;;;;;33.67;14.63;;;4.50;99.90;;;;;;5090740;28;20301;-59
2022/12/13 12:35:45;;;;;;;31.93;15.00;;;4.00;99.90;;;;;;5087869;28;20326;-59
2022/12/13 12:38:35;;;;;;;32.50;15.50;;;4.20;99.90;;;;;;5075670;28;20172;-59
2022/12/13 12:41:07;;;;;;;30.27;14.90;;;4.20;99.90;;;;;;5069317;28;20651;-59
2022/12/13 12:43:37;;;;;;;29.63;15.33;;;4.30;99.90;;;;;;5068863;28;20192;-59
2022/12/13 12:46:32;;;;;;;29.83;14.63;;;4.30;99.90;;;;;;5070274;28;20647;-59
2022/12/13 12:49:22;;;;;;;33.20;15.03;;;4.50;99.90;;;;;;5074012;28;20675;-59
2022/12/13 12:52:09;;;;;;;32.57;14.77;;;4.60;99.90;;;;;;5074042;28;20700;-59
2022/12/13 12:55:02;;;;;;;26.70;13.93;;;4.80;99.90;;;;;;5073771;28;20263;-59
2022/12/13 12:57:32;;;;;;;30.57;14.20;;;4.70;99.90;;;;;;5073802;28;20218;-59
2022/12/13 13:00:02;;;;;;;27.13;14.43;;;5.00;99.90;;;;;;5073034;28;20177;-59
2022/12/13 13:02:37;;;;;;;33.73;15.37;;;5.00;99.90;;;;;;5073436;28;20267;-59
2022/12/13 13:05:23;;;;;;;31.60;14.60;;;5.10;99.90;;;;;;5072768;28;20623;-59
2022/12/13 13:07:59;;;;;;;33.47;14.13;;;5.00;99.90;;;;;;5071642;28;20781;-59
2022/12/13 13:10:26;;;;;;;27.80;13.93;;;5.10;99.90;;;;;;5069595;28;20207;-59
2022/12/13 13:12:52;;;;;;;27.47;14.00;;;5.20;99.90;;;;;;5089119;28;20177;-59
2022/12/13 13:15:32;;;;;;;26.00;13.40;;;5.20;99.90;;;;;;5072529;28;20643;-59
2022/12/13 13:17:59;;;;;;;30.93;14.60;;;5.20;99.90;;;;;;5073692;28;20195;-59
2022/12/13 13:20:25;;;;;;;25.70;14.20;;;6.70;99.90;;;;;;5073413;28;20176;-59
2022/12/13 13:22:56;;;;;;;26.13;13.10;;;4.50;99.90;;;;;;5073269;28;20234;-59